Terminal Aerodrome Forecast
Issued by NWS Huntsville, AL

Home | Current Version | Previous Version | Text Only | Print | Product List | Glossary On
Versions: 1 2 3 4 5 6 7 8 9 10 11 12 13 14 15 16 17 18 19 20 21 22 23 24 25 26 27 28 29 30 31 32 33 34 35 36 37 38
000
FTUS44 KHUN 271252 AAU
TAFHSV
TAF AMD
KHSV 271252Z 2713/2812 VRB03KT 2SM -DZ BR OVC004
      TEMPO 2713/2715 4SM -DZ BR OVC006
     FM271500 27004KT P6SM OVC005
     FM271700 31005KT P6SM BKN014
     FM272100 31005KT P6SM SCT035=

USA.gov is the U.S. government's official web portal to all federal, state and local government web resources and services.